Time;durP1;ratioP1;P1;durP2;ratioP2;P2;SDS_P1;SDS_P2;PMS_P1;PMS_P2;Temp;Humidity;BMP_temperature;BMP_pressure;BME280_temperature;BME280_humidity;BME280_pressure;Samples;Min_cycle;Max_cycle;Signal;HPM_P1;HPM_P2
2021/07/30 00:01:05;;;;;;;16.60;10.77;;;27.00;97.30;;;;;;5019202;28;20183;-67
2021/07/30 00:03:31;;;;;;;11.45;9.88;;;27.00;96.80;;;;;;5020325;28;20045;-67
2021/07/30 00:05:57;;;;;;;11.65;9.68;;;27.00;96.80;;;;;;5023749;28;20038;-67
2021/07/30 00:08:22;;;;;;;14.90;10.35;;;27.00;97.40;;;;;;5027298;28;20045;-67
2021/07/30 00:10:48;;;;;;;15.98;9.85;;;26.90;98.00;;;;;;5023431;28;20041;-67
2021/07/30 00:13:14;;;;;;;14.05;9.63;;;26.90;98.50;;;;;;5031069;28;20087;-67
2021/07/30 00:15:39;;;;;;;10.80;9.43;;;26.90;98.60;;;;;;5023550;28;20049;-67
2021/07/30 00:18:05;;;;;;;10.93;9.15;;;26.80;98.70;;;;;;5021842;28;20046;-67
2021/07/30 00:20:31;;;;;;;11.73;10.35;;;26.80;98.70;;;;;;5015202;28;20041;-67
2021/07/30 00:22:57;;;;;;;14.13;11.00;;;26.80;98.90;;;;;;5014192;28;20092;-67
2021/07/30 00:25:25;;;;;;;14.02;9.55;;;26.70;98.50;;;;;;5028989;28;20038;-67
2021/07/30 00:27:51;;;;;;;16.45;10.75;;;26.70;99.20;;;;;;5007375;28;20059;-67
2021/07/30 00:30:16;;;;;;;17.77;10.63;;;26.70;98.60;;;;;;5028094;28;20448;-67
2021/07/30 00:32:42;;;;;;;11.68;10.48;;;26.70;98.50;;;;;;5003217;28;20030;-67
2021/07/30 00:35:08;;;;;;;12.98;10.73;;;26.70;98.80;;;;;;5020593;28;20474;-67
2021/07/30 00:37:38;;;;;;;14.73;10.90;;;26.70;99.40;;;;;;5017819;28;20403;-67
2021/07/30 00:40:05;;;;;;;14.60;10.75;;;26.60;99.80;;;;;;5024821;28;20720;-67
2021/07/30 00:42:31;;;;;;;13.43;11.52;;;26.60;99.40;;;;;;5023940;28;20059;-67
2021/07/30 00:44:58;;;;;;;12.35;11.13;;;26.60;99.00;;;;;;5028180;28;20095;-67
2021/07/30 00:47:25;;;;;;;11.88;10.60;;;26.50;99.90;;;;;;5010322;28;20422;-66
2021/07/30 00:49:51;;;;;;;14.52;10.50;;;26.50;99.90;;;;;;5026968;28;20091;-67
2021/07/30 00:52:17;;;;;;;13.50;10.70;;;26.50;99.90;;;;;;5011525;28;20054;-68
2021/07/30 00:54:42;;;;;;;12.73;10.65;;;26.40;99.90;;;;;;5016553;28;20219;-67
2021/07/30 00:57:08;;;;;;;14.52;11.13;;;26.40;99.90;;;;;;5013347;28;20112;-67
2021/07/30 00:59:34;;;;;;;13.57;9.98;;;26.40;99.90;;;;;;5006831;28;20045;-67
2021/07/30 01:02:00;;;;;;;16.25;10.15;;;26.40;99.90;;;;;;5026987;28;20052;-67
2021/07/30 01:04:25;;;;;;;15.68;11.30;;;26.30;99.90;;;;;;5024405;28;20083;-66
2021/07/30 01:06:51;;;;;;;14.27;10.80;;;26.30;99.90;;;;;;5026657;28;20418;-67
2021/07/30 01:09:17;;;;;;;12.48;9.75;;;26.30;99.90;;;;;;5024279;28;20090;-67
2021/07/30 01:11:44;;;;;;;16.75;11.00;;;26.30;99.90;;;;;;5022213;28;20049;-67
2021/07/30 01:14:10;;;;;;;12.65;10.75;;;26.30;99.90;;;;;;5019619;28;20521;-67
2021/07/30 01:16:38;;;;;;;12.73;10.35;;;26.30;99.90;;;;;;5008468;28;20038;-67
2021/07/30 01:19:06;;;;;;;12.48;11.15;;;26.30;99.90;;;;;;5005926;28;20053;-67
2021/07/30 01:21:34;;;;;;;12.43;11.13;;;26.30;99.90;;;;;;5001395;28;20046;-67
2021/07/30 01:24:00;;;;;;;13.52;10.93;;;26.30;99.90;;;;;;5004870;28;20045;-67
2021/07/30 01:26:27;;;;;;;14.98;11.20;;;26.30;99.90;;;;;;5016008;28;20041;-67
2021/07/30 01:28:52;;;;;;;13.32;11.10;;;26.30;99.90;;;;;;5006598;28;20144;-67
2021/07/30 01:31:18;;;;;;;13.05;11.73;;;26.30;99.90;;;;;;5013011;28;20045;-67
2021/07/30 01:33:43;;;;;;;11.13;10.00;;;26.30;99.90;;;;;;5003593;28;20100;-67
2021/07/30 01:36:09;;;;;;;15.20;11.35;;;26.30;99.90;;;;;;5019282;28;20109;-67
2021/07/30 01:38:34;;;;;;;17.83;12.02;;;26.30;99.90;;;;;;5008582;28;20562;-67
2021/07/30 01:41:09;;;;;;;12.65;11.40;;;26.20;99.90;;;;;;5014899;28;20037;-67
2021/07/30 01:43:39;;;;;;;16.08;12.13;;;26.20;99.90;;;;;;5010849;28;20041;-67
2021/07/30 01:46:05;;;;;;;16.42;12.30;;;26.20;99.90;;;;;;5022014;28;20041;-67
2021/07/30 01:48:31;;;;;;;14.18;11.38;;;26.20;99.90;;;;;;5008093;28;20091;-67
2021/07/30 01:50:56;;;;;;;14.45;11.80;;;26.20;99.90;;;;;;5000320;28;20038;-67
2021/07/30 01:53:22;;;;;;;12.57;9.75;;;26.20;99.90;;;;;;5021477;28;20088;-67
2021/07/30 01:55:47;;;;;;;13.32;11.18;;;26.10;99.90;;;;;;5001989;28;20048;-67
2021/07/30 01:58:13;;;;;;;11.23;10.23;;;26.00;99.90;;;;;;5028411;28;20042;-67
2021/07/30 02:00:39;;;;;;;12.27;10.63;;;26.00;99.90;;;;;;5025949;28;20084;-67
2021/07/30 02:03:04;;;;;;;13.70;11.38;;;26.00;99.90;;;;;;5007343;28;20046;-67
2021/07/30 02:05:30;;;;;;;15.27;11.10;;;26.10;99.90;;;;;;5021953;28;20521;-66
2021/07/30 02:07:56;;;;;;;14.02;10.75;;;26.10;99.90;;;;;;5011397;28;20169;-66
2021/07/30 02:10:21;;;;;;;13.80;10.88;;;26.00;99.90;;;;;;5000965;28;20124;-67
2021/07/30 02:15:31;;;;;;;15.05;10.70;;;26.00;99.90;;;;;;4996421;28;20057;-67
2021/07/30 02:17:57;;;;;;;13.57;10.40;;;26.00;99.90;;;;;;5026055;28;20046;-67
2021/07/30 02:20:22;;;;;;;14.05;10.70;;;25.90;99.90;;;;;;5028521;28;20038;-67
2021/07/30 02:22:48;;;;;;;15.63;10.60;;;26.00;99.90;;;;;;5009035;28;20156;-67
2021/07/30 02:25:14;;;;;;;13.02;10.85;;;25.90;99.90;;;;;;5004541;28;20117;-67
2021/07/30 02:27:39;;;;;;;12.18;10.63;;;25.90;99.90;;;;;;5009665;28;20068;-67
2021/07/30 02:30:05;;;;;;;14.48;11.00;;;25.80;99.90;;;;;;5030745;28;20037;-67
2021/07/30 02:32:31;;;;;;;12.07;10.70;;;25.80;99.90;;;;;;5016540;28;20034;-67
2021/07/30 02:34:56;;;;;;;13.25;10.80;;;25.80;99.90;;;;;;5012946;28;20034;-67
2021/07/30 02:37:22;;;;;;;12.85;10.48;;;25.80;99.90;;;;;;5021834;28;20034;-67
2021/07/30 02:39:47;;;;;;;12.68;10.95;;;25.80;99.90;;;;;;5025279;28;20076;-67
2021/07/30 02:42:13;;;;;;;12.07;10.68;;;25.80;99.90;;;;;;5021689;28;20041;-67
2021/07/30 02:44:38;;;;;;;12.32;11.13;;;25.80;99.90;;;;;;5026134;28;20056;-67
2021/07/30 02:47:04;;;;;;;12.23;10.88;;;25.80;99.90;;;;;;5016585;28;20038;-67
2021/07/30 02:49:30;;;;;;;14.35;11.57;;;25.70;99.90;;;;;;5003350;28;20100;-67
2021/07/30 02:51:55;;;;;;;13.90;11.38;;;25.80;99.90;;;;;;5009008;28;20041;-65
2021/07/30 02:54:21;;;;;;;16.83;11.63;;;25.80;99.90;;;;;;5020400;28;20047;-67
2021/07/30 02:56:46;;;;;;;13.55;11.15;;;25.70;99.90;;;;;;5016999;28;20464;-67
2021/07/30 02:59:12;;;;;;;13.50;11.30;;;25.70;99.90;;;;;;5005759;28;20038;-67
2021/07/30 03:01:37;;;;;;;14.93;11.50;;;25.80;99.90;;;;;;5011473;28;20064;-67
2021/07/30 03:04:03;;;;;;;13.90;10.73;;;25.80;99.90;;;;;;5010733;28;20425;-67
2021/07/30 03:06:29;;;;;;;12.05;10.70;;;25.80;99.90;;;;;;5029725;28;20060;-66
2021/07/30 03:08:56;;;;;;;13.73;11.23;;;25.80;99.90;;;;;;5018013;28;20391;-67
2021/07/30 03:11:21;;;;;;;12.60;11.10;;;25.80;99.90;;;;;;5025685;28;20049;-67
2021/07/30 03:13:47;;;;;;;14.15;10.75;;;25.80;99.90;;;;;;5030850;28;20045;-67
2021/07/30 03:16:13;;;;;;;15.98;11.45;;;25.80;99.90;;;;;;5011775;28;20041;-67
2021/07/30 03:18:39;;;;;;;12.15;10.85;;;25.70;99.90;;;;;;5017498;28;20517;-67
2021/07/30 03:21:05;;;;;;;12.15;9.65;;;25.70;99.90;;;;;;5009540;28;20038;-67
2021/07/30 03:23:30;;;;;;;12.38;11.05;;;25.70;99.90;;;;;;5016943;28;20446;-66
2021/07/30 03:25:56;;;;;;;12.25;10.82;;;25.70;99.90;;;;;;5029289;28;20041;-66
2021/07/30 03:28:22;;;;;;;17.50;10.90;;;25.60;99.90;;;;;;5015369;28;20077;-67
2021/07/30 03:30:48;;;;;;;15.38;10.93;;;25.60;99.90;;;;;;5016388;28;20044;-67
2021/07/30 03:33:14;;;;;;;15.27;11.48;;;25.60;99.90;;;;;;5025863;28;20037;-67
2021/07/30 03:35:40;;;;;;;13.40;10.20;;;25.60;99.90;;;;;;5028800;28;20491;-66
2021/07/30 03:38:06;;;;;;;14.32;10.75;;;25.60;99.90;;;;;;5021819;28;20046;-67
2021/07/30 03:40:32;;;;;;;12.02;10.75;;;25.60;99.90;;;;;;5024735;28;20052;-66
2021/07/30 03:42:57;;;;;;;13.80;10.73;;;25.60;99.90;;;;;;5004771;28;20487;-66
2021/07/30 03:45:23;;;;;;;11.50;10.35;;;25.60;99.90;;;;;;5028734;28;20386;-67
2021/07/30 03:47:48;;;;;;;14.07;11.38;;;25.60;99.90;;;;;;5020504;28;20480;-66
2021/07/30 03:50:14;;;;;;;17.40;11.40;;;25.60;99.90;;;;;;5011248;28;20446;-66
2021/07/30 03:52:40;;;;;;;12.98;11.63;;;25.60;99.90;;;;;;5031403;28;20064;-66
2021/07/30 03:55:06;;;;;;;13.30;11.00;;;25.60;99.90;;;;;;5025636;28;20045;-67
2021/07/30 03:57:32;;;;;;;11.57;10.48;;;25.50;99.90;;;;;;5005117;28;20147;-67
2021/07/30 03:59:57;;;;;;;12.60;11.27;;;25.60;99.90;;;;;;5008369;28;20544;-66
2021/07/30 04:02:23;;;;;;;11.63;10.40;;;25.60;99.90;;;;;;5014169;28;20033;-66
2021/07/30 04:04:49;;;;;;;13.10;10.80;;;25.60;99.90;;;;;;5009972;28;20048;-66
2021/07/30 04:07:14;;;;;;;12.75;10.90;;;25.60;99.90;;;;;;5012234;28;20446;-67
2021/07/30 04:09:40;;;;;;;14.70;11.75;;;25.60;99.90;;;;;;5008481;28;20049;-67
2021/07/30 04:12:06;;;;;;;15.75;11.40;;;25.50;99.90;;;;;;5023862;28;20116;-66
2021/07/30 04:14:31;;;;;;;14.35;11.50;;;25.50;99.90;;;;;;5027224;28;20053;-66
2021/07/30 04:16:57;;;;;;;15.10;11.20;;;25.50;99.90;;;;;;5023334;28;20046;-68
2021/07/30 04:19:23;;;;;;;11.73;10.52;;;25.50;99.90;;;;;;5031133;28;20061;-68
2021/07/30 04:21:50;;;;;;;14.02;10.88;;;25.50;99.90;;;;;;5020659;28;20044;-67
2021/07/30 04:24:16;;;;;;;12.32;11.00;;;25.50;99.90;;;;;;5016265;28;20057;-67
2021/07/30 04:26:42;;;;;;;15.48;11.35;;;25.50;99.90;;;;;;5008856;28;20054;-67
2021/07/30 04:29:07;;;;;;;13.05;11.18;;;25.50;99.90;;;;;;5010179;28;20034;-67
2021/07/30 04:31:37;;;;;;;14.63;10.93;;;25.60;99.90;;;;;;5000764;28;20056;-67
2021/07/30 04:34:15;;;;;;;12.80;10.70;;;25.60;99.90;;;;;;5016254;28;20548;-67
2021/07/30 04:36:41;;;;;;;14.77;11.20;;;25.60;99.90;;;;;;5010382;28;20125;-67
2021/07/30 04:39:06;;;;;;;16.10;12.57;;;25.60;99.90;;;;;;5027558;28;20125;-67
2021/07/30 04:41:33;;;;;;;14.70;11.23;;;25.60;99.90;;;;;;4999465;28;20032;-67
2021/07/30 04:43:58;;;;;;;17.75;11.75;;;25.70;99.90;;;;;;5017581;28;20040;-67
2021/07/30 04:46:24;;;;;;;15.90;11.48;;;25.60;99.90;;;;;;5008228;28;20034;-67
2021/07/30 04:48:50;;;;;;;17.90;11.65;;;25.60;99.90;;;;;;5008231;28;20124;-67
2021/07/30 04:51:15;;;;;;;16.13;11.05;;;25.70;99.90;;;;;;4998160;28;20053;-67
2021/07/30 04:53:41;;;;;;;16.80;11.95;;;25.70;99.90;;;;;;5006296;28;20042;-67
2021/07/30 04:56:07;;;;;;;15.60;12.75;;;25.60;99.90;;;;;;5011551;28;20121;-67
2021/07/30 04:58:32;;;;;;;14.63;12.68;;;25.60;99.90;;;;;;5021009;28;20052;-67
2021/07/30 05:01:03;;;;;;;19.10;13.00;;;25.60;99.90;;;;;;5027605;28;20108;-66
2021/07/30 05:03:29;;;;;;;13.18;11.35;;;25.70;99.90;;;;;;5024076;28;20079;-66
2021/07/30 05:05:55;;;;;;;14.88;12.00;;;25.60;99.90;;;;;;5010174;28;20057;-66
2021/07/30 05:08:20;;;;;;;14.98;11.95;;;25.60;99.90;;;;;;5000555;28;20447;-67
2021/07/30 05:10:50;;;;;;;11.73;10.57;;;25.70;99.90;;;;;;5003761;28;20120;-67
2021/07/30 05:13:16;;;;;;;16.42;11.98;;;25.70;99.90;;;;;;5018283;28;20518;-67
2021/07/30 05:15:41;;;;;;;12.70;11.25;;;25.70;99.90;;;;;;5010271;28;20046;-67
2021/07/30 05:18:07;;;;;;;12.95;11.57;;;25.80;99.90;;;;;;5010534;28;20365;-66
2021/07/30 05:20:32;;;;;;;13.68;11.48;;;25.80;99.90;;;;;;5004963;28;20073;-66
2021/07/30 05:22:58;;;;;;;15.68;12.43;;;25.80;99.90;;;;;;5011529;28;20457;-66
2021/07/30 05:25:23;;;;;;;14.65;12.07;;;25.80;99.90;;;;;;5016101;28;20087;-67
2021/07/30 05:27:49;;;;;;;12.07;10.55;;;25.80;99.90;;;;;;5013337;28;20064;-67
2021/07/30 05:30:15;;;;;;;12.30;10.48;;;25.80;99.90;;;;;;5019234;28;20041;-66
2021/07/30 05:32:40;;;;;;;14.52;11.75;;;25.80;99.90;;;;;;5019457;28;20117;-66
2021/07/30 05:38:28;;;;;;;13.13;11.57;;;25.90;99.90;;;;;;4929309;28;20887;-66
2021/07/30 05:40:53;;;;;;;16.85;12.45;;;25.90;99.90;;;;;;5017706;28;20049;-67
2021/07/30 05:43:19;;;;;;;13.38;11.95;;;26.00;99.90;;;;;;5024110;28;20080;-67
2021/07/30 05:45:45;;;;;;;15.93;12.07;;;26.00;99.90;;;;;;5015893;28;20403;-67
2021/07/30 05:48:10;;;;;;;14.85;12.93;;;26.10;99.90;;;;;;5017673;28;20052;-67
2021/07/30 05:50:36;;;;;;;15.68;13.20;;;26.10;99.90;;;;;;5017127;28;20348;-67
2021/07/30 05:53:02;;;;;;;15.30;12.93;;;26.20;99.90;;;;;;5007993;28;20557;-66
2021/07/30 05:55:27;;;;;;;18.13;12.93;;;26.30;99.90;;;;;;5022919;28;20038;-60
2021/07/30 05:57:53;;;;;;;15.98;13.00;;;26.30;99.90;;;;;;5021119;28;20030;-67
2021/07/30 06:00:18;;;;;;;14.02;12.63;;;26.40;99.90;;;;;;5004350;28;20113;-67
2021/07/30 06:02:44;;;;;;;13.23;11.93;;;26.40;99.90;;;;;;5011283;28;20049;-67
2021/07/30 06:05:10;;;;;;;13.52;11.65;;;26.40;99.90;;;;;;5016842;28;20646;-67
2021/07/30 06:07:35;;;;;;;14.43;12.93;;;26.40;99.90;;;;;;5001330;28;20045;-67
2021/07/30 06:10:01;;;;;;;15.95;12.45;;;26.50;99.90;;;;;;5002770;28;20050;-67
2021/07/30 06:12:28;;;;;;;16.60;13.23;;;26.60;99.90;;;;;;5006952;28;20042;-67
2021/07/30 06:14:54;;;;;;;15.40;12.00;;;26.60;99.90;;;;;;5004931;28;20487;-67
2021/07/30 06:17:19;;;;;;;17.02;13.60;;;26.70;99.90;;;;;;5014751;28;20044;-67
2021/07/30 06:19:45;;;;;;;17.92;13.07;;;26.70;99.90;;;;;;5021616;28;20065;-67
2021/07/30 06:22:11;;;;;;;20.30;12.70;;;26.80;99.90;;;;;;5018313;28;20029;-67
2021/07/30 06:24:40;;;;;;;17.10;12.43;;;27.00;99.90;;;;;;5028183;28;20128;-67
2021/07/30 06:27:06;;;;;;;17.40;13.52;;;27.00;99.90;;;;;;5018118;28;20064;-67
2021/07/30 06:29:32;;;;;;;20.70;13.35;;;27.10;99.90;;;;;;5003101;28;20464;-67
2021/07/30 06:31:58;;;;;;;16.50;12.55;;;27.10;99.90;;;;;;5009920;28;20476;-63
2021/07/30 06:34:24;;;;;;;13.65;12.23;;;27.20;99.90;;;;;;4994922;28;20049;-67
2021/07/30 06:36:57;;;;;;;16.45;12.10;;;27.10;99.90;;;;;;5016558;28;20041;-67
2021/07/30 06:39:23;;;;;;;14.95;12.45;;;27.20;99.90;;;;;;5022354;28;20108;-67
2021/07/30 06:41:49;;;;;;;14.40;12.23;;;27.40;99.50;;;;;;5020853;28;20034;-67
2021/07/30 06:44:15;;;;;;;15.75;13.57;;;27.40;98.90;;;;;;5025101;28;20034;-67
2021/07/30 06:46:40;;;;;;;13.43;11.85;;;27.50;98.70;;;;;;4987682;28;20052;-67
2021/07/30 06:49:06;;;;;;;14.43;10.43;;;27.50;98.10;;;;;;5007218;28;20068;-67
2021/07/30 06:51:31;;;;;;;13.95;11.65;;;27.60;97.80;;;;;;5021535;28;20117;-67
2021/07/30 06:53:57;;;;;;;14.43;10.15;;;27.60;97.80;;;;;;5027415;28;20049;-67
2021/07/30 06:56:22;;;;;;;11.02;9.07;;;27.70;96.50;;;;;;5020832;28;20038;-67
2021/07/30 06:58:48;;;;;;;13.98;10.32;;;27.60;96.00;;;;;;5028679;28;20045;-67
2021/07/30 07:01:14;;;;;;;13.02;9.48;;;27.70;95.90;;;;;;5023631;28;20395;-67
2021/07/30 07:03:39;;;;;;;12.35;10.55;;;27.60;94.20;;;;;;5018940;28;20403;-67
2021/07/30 07:06:05;;;;;;;12.77;9.52;;;27.60;93.70;;;;;;5015717;28;20025;-66
2021/07/30 07:08:30;;;;;;;9.98;8.60;;;27.50;93.60;;;;;;5001771;28;20407;-67
2021/07/30 07:10:56;;;;;;;10.23;9.25;;;27.60;93.30;;;;;;5001390;28;20088;-67
2021/07/30 07:13:22;;;;;;;13.95;9.30;;;27.60;93.20;;;;;;5011598;28;20045;-67
2021/07/30 07:15:47;;;;;;;12.35;9.23;;;27.60;93.40;;;;;;5000665;28;20042;-67
2021/07/30 07:18:13;;;;;;;10.88;9.10;;;27.70;93.70;;;;;;5002694;28;20070;-67
2021/07/30 07:20:40;;;;;;;12.38;8.75;;;27.70;93.90;;;;;;5005331;28;20042;-67
2021/07/30 07:23:06;;;;;;;10.88;8.95;;;27.70;92.90;;;;;;5012086;28;20038;-67
2021/07/30 07:25:33;;;;;;;9.60;8.70;;;27.80;93.20;;;;;;4998762;28;20476;-66
2021/07/30 07:27:59;;;;;;;15.13;9.90;;;27.90;93.00;;;;;;5003628;28;20133;-67
2021/07/30 07:30:24;;;;;;;10.75;9.27;;;28.00;92.30;;;;;;5004584;28;20177;-67
2021/07/30 07:32:50;;;;;;;10.93;9.30;;;28.00;92.80;;;;;;5002272;28;20046;-67
2021/07/30 07:35:16;;;;;;;12.68;9.52;;;27.90;92.70;;;;;;4993904;28;20468;-67
2021/07/30 07:37:41;;;;;;;9.85;8.80;;;27.90;92.50;;;;;;5007108;28;20050;-67
2021/07/30 07:40:08;;;;;;;11.73;8.85;;;27.90;91.60;;;;;;5006178;28;20072;-67
2021/07/30 07:42:34;;;;;;;11.00;9.95;;;27.90;92.20;;;;;;5014269;28;20041;-67
2021/07/30 07:45:01;;;;;;;13.02;9.60;;;28.00;92.40;;;;;;5004063;28;20042;-65
2021/07/30 07:47:27;;;;;;;11.10;8.35;;;27.90;92.50;;;;;;5013453;28;20060;-67
2021/07/30 07:49:53;;;;;;;11.80;9.00;;;28.00;92.40;;;;;;5017960;28;20048;-67
2021/07/30 07:52:18;;;;;;;11.00;8.75;;;27.90;92.30;;;;;;5015746;28;20390;-67
2021/07/30 07:54:44;;;;;;;12.90;8.18;;;27.90;92.40;;;;;;5007822;28;20045;-67
2021/07/30 07:57:09;;;;;;;10.02;8.43;;;28.00;92.50;;;;;;5017904;28;20431;-67
2021/07/30 07:59:36;;;;;;;11.50;8.40;;;28.10;92.20;;;;;;5018117;28;20132;-67
2021/07/30 08:02:08;;;;;;;11.82;8.18;;;27.90;92.40;;;;;;5025857;28;20037;-67
2021/07/30 08:04:33;;;;;;;10.65;8.57;;;27.90;92.60;;;;;;5020960;28;20074;-67
2021/07/30 08:07:03;;;;;;;14.95;8.82;;;27.90;93.10;;;;;;5008651;28;20069;-67
2021/07/30 08:09:30;;;;;;;10.32;8.20;;;27.90;93.50;;;;;;5006873;28;20515;-67
2021/07/30 08:11:59;;;;;;;14.40;9.10;;;27.80;93.40;;;;;;5000432;28;20091;-67
2021/07/30 08:14:24;;;;;;;10.07;8.95;;;28.00;93.40;;;;;;5018338;28;20406;-67
2021/07/30 08:16:50;;;;;;;9.18;8.40;;;28.00;93.10;;;;;;5016430;28;20166;-67
2021/07/30 08:19:18;;;;;;;9.57;8.45;;;28.00;92.70;;;;;;5008178;28;20076;-67
2021/07/30 08:21:44;;;;;;;9.95;8.70;;;28.00;92.90;;;;;;5013380;28;20104;-67
2021/07/30 08:24:10;;;;;;;8.82;7.90;;;28.00;92.80;;;;;;5027177;28;20041;-66
2021/07/30 08:26:35;;;;;;;10.68;9.05;;;28.10;92.90;;;;;;5019677;28;20061;-67
2021/07/30 08:29:01;;;;;;;12.60;9.02;;;28.10;93.00;;;;;;5028106;28;20128;-66
2021/07/30 08:31:27;;;;;;;9.25;8.38;;;28.00;92.90;;;;;;5019091;28;20034;-67
2021/07/30 08:33:53;;;;;;;10.02;8.98;;;28.20;92.80;;;;;;5001881;28;20087;-67
2021/07/30 08:36:19;;;;;;;10.40;8.10;;;28.10;92.40;;;;;;5016782;28;20049;-67
2021/07/30 08:38:45;;;;;;;9.73;8.73;;;28.20;92.50;;;;;;5028537;28;20444;-66
2021/07/30 08:41:11;;;;;;;9.40;8.40;;;28.30;92.30;;;;;;5009677;28;20048;-67
2021/07/30 08:43:36;;;;;;;11.25;8.52;;;28.50;92.10;;;;;;5007381;28;20046;-66
2021/07/30 08:46:02;;;;;;;10.50;8.77;;;28.60;92.10;;;;;;5003730;28;20083;-67
2021/07/30 08:48:33;;;;;;;11.48;8.93;;;28.50;92.20;;;;;;5028943;28;20124;-67
2021/07/30 08:51:02;;;;;;;11.73;9.77;;;28.60;92.60;;;;;;5021572;28;20065;-68
2021/07/30 08:53:28;;;;;;;11.00;8.93;;;28.60;93.00;;;;;;5013304;28;20089;-67
2021/07/30 08:55:54;;;;;;;10.88;9.23;;;28.80;93.60;;;;;;5013512;28;20460;-67
2021/07/30 08:58:20;;;;;;;9.57;8.60;;;28.90;93.50;;;;;;5005341;28;20496;-67
2021/07/30 09:00:46;;;;;;;11.13;8.63;;;28.90;93.70;;;;;;5009837;28;20050;-67
2021/07/30 09:03:12;;;;;;;11.75;8.98;;;29.10;93.60;;;;;;5007902;28;20046;-67
2021/07/30 09:05:38;;;;;;;10.80;9.10;;;29.20;93.10;;;;;;5005366;28;20049;-67
2021/07/30 09:08:05;;;;;;;14.18;8.52;;;29.10;93.00;;;;;;5015113;28;20120;-67
2021/07/30 09:10:40;;;;;;;9.40;8.40;;;29.20;91.80;;;;;;5018282;28;20373;-66
2021/07/30 09:13:14;;;;;;;9.75;8.40;;;29.10;92.20;;;;;;5006797;28;20065;-66
2021/07/30 09:15:41;;;;;;;10.20;9.27;;;29.20;92.40;;;;;;5012163;28;20096;-67
2021/07/30 09:18:06;;;;;;;9.65;8.60;;;29.30;92.80;;;;;;5006422;28;20053;-67
2021/07/30 09:20:32;;;;;;;12.57;8.40;;;29.40;92.50;;;;;;5026001;28;20037;-66
2021/07/30 09:22:57;;;;;;;9.70;8.70;;;29.30;92.30;;;;;;5023974;28;20025;-67
2021/07/30 09:25:34;;;;;;;9.98;8.48;;;29.50;91.90;;;;;;5025462;28;20060;-67
2021/07/30 09:28:07;;;;;;;8.90;7.93;;;29.50;91.70;;;;;;5018065;28;20068;-66
2021/07/30 09:30:34;;;;;;;8.38;7.53;;;29.50;91.10;;;;;;5028309;28;20051;-67
2021/07/30 09:33:00;;;;;;;10.18;8.18;;;29.60;91.20;;;;;;5023236;28;20038;-63
2021/07/30 09:35:26;;;;;;;10.20;9.00;;;29.60;91.00;;;;;;5029715;28;20057;-67
2021/07/30 09:38:14;;;;;;;10.82;8.57;;;29.80;90.70;;;;;;5023210;28;20495;-67
2021/07/30 09:40:40;;;;;;;10.05;8.73;;;29.70;90.90;;;;;;4987773;28;20530;-67
2021/07/30 09:43:22;;;;;;;9.85;8.90;;;29.70;91.20;;;;;;5007698;28;20057;-67
2021/07/30 09:45:51;;;;;;;10.95;8.52;;;29.80;90.70;;;;;;5006097;28;20042;-67
2021/07/30 09:48:16;;;;;;;13.00;9.45;;;29.70;90.70;;;;;;5003157;28;20053;-67
2021/07/30 09:50:42;;;;;;;11.05;9.80;;;29.80;90.90;;;;;;5001239;28;20042;-67
2021/07/30 09:53:09;;;;;;;9.52;8.60;;;29.80;90.90;;;;;;5022465;28;20072;-67
2021/07/30 09:55:36;;;;;;;10.25;8.38;;;29.70;90.70;;;;;;5009216;28;20038;-67
2021/07/30 09:58:03;;;;;;;10.98;7.82;;;29.70;90.40;;;;;;5019862;28;20041;-66
2021/07/30 10:00:31;;;;;;;9.27;7.75;;;29.90;90.80;;;;;;5025844;28;20179;-67
2021/07/30 10:03:02;;;;;;;8.52;7.43;;;29.70;90.70;;;;;;5009209;28;20084;-67
2021/07/30 10:05:29;;;;;;;10.93;9.02;;;30.10;90.00;;;;;;5007978;28;20038;-67
2021/07/30 10:07:57;;;;;;;9.75;7.68;;;30.20;90.10;;;;;;5005132;28;20065;-67
2021/07/30 10:10:26;;;;;;;10.38;8.02;;;30.10;90.60;;;;;;5023373;28;20072;-67
2021/07/30 10:12:57;;;;;;;9.40;8.40;;;30.00;91.30;;;;;;5005568;28;20041;-66
2021/07/30 10:15:23;;;;;;;10.07;8.98;;;29.80;91.90;;;;;;5017214;28;20034;-67
2021/07/30 10:17:51;;;;;;;10.38;8.40;;;29.80;92.60;;;;;;5025069;28;20390;-67
2021/07/30 10:20:19;;;;;;;10.52;8.48;;;29.80;92.90;;;;;;5021813;28;20053;-66
2021/07/30 10:23:03;;;;;;;10.95;8.82;;;30.00;92.30;;;;;;5025402;28;20049;-67
2021/07/30 10:25:34;;;;;;;9.07;8.15;;;30.10;92.10;;;;;;5013471;28;20125;-67
2021/07/30 10:28:04;;;;;;;9.27;7.97;;;30.10;92.30;;;;;;5022355;28;20037;-62
2021/07/30 10:30:49;;;;;;;10.65;7.93;;;30.10;91.50;;;;;;5023929;28;20038;-67
2021/07/30 10:33:15;;;;;;;9.40;7.80;;;30.10;90.90;;;;;;4982804;28;20042;-67
2021/07/30 10:35:42;;;;;;;10.15;8.10;;;30.30;91.10;;;;;;4996802;28;20103;-67
2021/07/30 10:38:20;;;;;;;10.45;8.18;;;30.20;91.10;;;;;;5004888;28;20056;-67
2021/07/30 10:41:09;;;;;;;11.15;8.30;;;30.40;91.80;;;;;;5008555;28;20790;-67
2021/07/30 10:43:49;;;;;;;10.07;9.13;;;30.30;92.30;;;;;;4998027;28;20495;-67
2021/07/30 10:46:16;;;;;;;11.07;8.68;;;30.40;91.60;;;;;;4997146;28;20130;-67
2021/07/30 10:48:43;;;;;;;8.93;8.10;;;30.30;91.10;;;;;;5018187;28;20509;-67
2021/07/30 10:53:57;;;;;;;9.95;9.02;;;30.50;89.10;;;;;;5008018;28;20097;-67
2021/07/30 10:56:29;;;;;;;10.77;9.48;;;30.40;90.20;;;;;;5006270;28;20056;-67
2021/07/30 10:58:58;;;;;;;10.20;8.65;;;30.50;90.50;;;;;;5011882;28;20057;-67
2021/07/30 11:01:30;;;;;;;9.70;8.80;;;30.70;90.30;;;;;;5008533;28;20054;-67
2021/07/30 11:03:58;;;;;;;10.02;9.13;;;30.90;88.30;;;;;;5017228;28;20038;-67
2021/07/30 11:06:29;;;;;;;11.52;9.75;;;31.00;89.40;;;;;;5000207;28;20042;-67
2021/07/30 11:09:04;;;;;;;9.93;8.88;;;31.10;89.10;;;;;;5008549;28;20042;-67
2021/07/30 11:11:40;;;;;;;10.95;9.77;;;31.20;89.30;;;;;;5016215;28;20038;-67
2021/07/30 11:14:11;;;;;;;12.02;10.77;;;31.40;89.40;;;;;;4972544;28;20116;-67
2021/07/30 11:16:37;;;;;;;13.95;9.88;;;31.30;90.00;;;;;;5019181;28;20081;-67
2021/07/30 11:19:17;;;;;;;10.73;9.65;;;31.00;90.30;;;;;;5018245;28;20049;-66
2021/07/30 11:21:43;;;;;;;12.88;10.98;;;30.90;90.30;;;;;;5007267;28;20036;-66
2021/07/30 11:24:09;;;;;;;13.00;10.65;;;30.50;91.10;;;;;;5032090;28;20037;-66
2021/07/30 11:26:37;;;;;;;12.20;10.93;;;30.30;91.90;;;;;;5024698;28;20045;-66
2021/07/30 11:29:10;;;;;;;12.27;11.05;;;30.30;92.30;;;;;;5022955;28;20121;-66
2021/07/30 11:31:37;;;;;;;12.80;10.38;;;30.50;92.30;;;;;;5025518;28;20033;-66
2021/07/30 11:34:08;;;;;;;12.25;10.98;;;31.00;91.30;;;;;;5025664;28;20083;-66
2021/07/30 11:36:34;;;;;;;11.52;10.35;;;31.30;90.30;;;;;;5028970;28;20042;-66
2021/07/30 11:39:00;;;;;;;11.60;10.50;;;31.70;89.80;;;;;;5011443;28;20061;-66
2021/07/30 11:41:25;;;;;;;13.50;11.13;;;31.90;87.60;;;;;;5006289;28;20096;-66
2021/07/30 11:44:04;;;;;;;13.07;11.20;;;31.80;87.00;;;;;;5009268;28;20529;-67
2021/07/30 11:46:31;;;;;;;11.93;10.80;;;31.60;87.60;;;;;;5032076;28;20112;-67
2021/07/30 11:48:57;;;;;;;13.70;12.25;;;31.40;89.30;;;;;;5011466;28;20072;-67
2021/07/30 11:51:23;;;;;;;12.40;11.13;;;31.40;89.60;;;;;;4998452;28;20125;-67
2021/07/30 11:53:51;;;;;;;13.00;11.30;;;31.30;89.40;;;;;;5019787;28;20049;-67
2021/07/30 11:56:18;;;;;;;12.85;10.65;;;31.20;89.70;;;;;;5020393;28;20061;-67
2021/07/30 11:59:00;;;;;;;13.27;10.95;;;31.00;90.80;;;;;;5025312;28;20038;-67
2021/07/30 12:01:26;;;;;;;12.88;11.48;;;30.90;90.40;;;;;;5028650;28;20103;-67
2021/07/30 12:04:08;;;;;;;13.50;12.07;;;30.90;91.30;;;;;;5025242;28;20069;-67
2021/07/30 12:06:55;;;;;;;11.98;10.88;;;30.70;92.30;;;;;;5021703;28;20099;-66
2021/07/30 12:09:21;;;;;;;11.15;10.20;;;30.90;92.70;;;;;;5009301;28;20372;-67
2021/07/30 12:11:52;;;;;;;14.07;11.68;;;30.90;92.10;;;;;;5022807;28;20030;-67
2021/07/30 12:14:18;;;;;;;13.45;10.95;;;31.20;91.10;;;;;;5008836;28;20095;-66
2021/07/30 12:16:44;;;;;;;13.05;11.02;;;31.60;90.40;;;;;;5019982;28;20603;-66
2021/07/30 12:19:10;;;;;;;12.70;11.48;;;32.20;88.20;;;;;;5008112;28;20081;-66
2021/07/30 12:21:53;;;;;;;10.98;9.88;;;32.30;87.30;;;;;;5014620;28;20033;-66
2021/07/30 12:24:18;;;;;;;12.90;11.57;;;33.00;85.10;;;;;;5004563;28;20092;-67
2021/07/30 12:26:44;;;;;;;14.48;11.55;;;33.10;84.50;;;;;;5004577;28;20061;-66
2021/07/30 12:29:40;;;;;;;13.40;11.93;;;33.70;88.60;;;;;;5004830;28;20488;-67
2021/07/30 12:32:14;;;;;;;13.02;11.70;;;34.10;85.20;;;;;;5006952;28;20125;-66
2021/07/30 12:34:52;;;;;;;12.85;10.88;;;34.30;77.50;;;;;;5019732;28;20041;-66
2021/07/30 12:37:17;;;;;;;12.02;10.77;;;34.80;76.60;;;;;;5008268;28;20045;-67
2021/07/30 12:39:45;;;;;;;15.23;11.85;;;34.10;75.60;;;;;;4991358;28;23391;-67